sensor_id;sensor_type;location;lat;lon;timestamp;P1;durP1;ratioP1;P2;durP2;ratioP2
5010;SDS011;2524;54.364;10.072;2022-12-20T01:21:48;15.83;;;12.10;;
5010;SDS011;2524;54.364;10.072;2022-12-20T01:25:13;11.23;;;9.60;;
5010;SDS011;2524;54.364;10.072;2022-12-20T01:31:44;14.53;;;11.13;;
5010;SDS011;2524;54.364;10.072;2022-12-20T01:40:54;15.90;;;11.27;;
5010;SDS011;2524;54.364;10.072;2022-12-20T01:43:58;18.40;;;14.30;;
5010;SDS011;2524;54.364;10.072;2022-12-20T01:47:03;16.80;;;12.77;;
5010;SDS011;2524;54.364;10.072;2022-12-20T01:56:58;17.83;;;13.57;;
5010;SDS011;2524;54.364;10.072;2022-12-20T02:00:21;14.77;;;11.37;;
5010;SDS011;2524;54.364;10.072;2022-12-20T02:06:22;17.90;;;13.67;;
5010;SDS011;2524;54.364;10.072;2022-12-20T02:15:37;15.03;;;11.63;;
5010;SDS011;2524;54.364;10.072;2022-12-20T02:30:39;12.93;;;10.77;;
5010;SDS011;2524;54.364;10.072;2022-12-20T02:33:27;13.77;;;12.37;;
5010;SDS011;2524;54.364;10.072;2022-12-20T02:36:05;16.30;;;12.90;;
5010;SDS011;2524;54.364;10.072;2022-12-20T02:42:21;15.10;;;12.30;;
5010;SDS011;2524;54.364;10.072;2022-12-20T02:45:33;13.50;;;11.07;;
5010;SDS011;2524;54.364;10.072;2022-12-20T02:48:20;13.53;;;10.30;;
5010;SDS011;2524;54.364;10.072;2022-12-20T02:51:23;21.20;;;13.50;;
5010;SDS011;2524;54.364;10.072;2022-12-20T03:00:37;11.63;;;10.00;;
5010;SDS011;2524;54.364;10.072;2022-12-20T03:03:30;13.50;;;11.47;;
5010;SDS011;2524;54.364;10.072;2022-12-20T03:06:12;12.10;;;10.80;;
5010;SDS011;2524;54.364;10.072;2022-12-20T03:08:55;15.70;;;12.90;;
5010;SDS011;2524;54.364;10.072;2022-12-20T03:11:30;15.00;;;12.00;;
5010;SDS011;2524;54.364;10.072;2022-12-20T03:14:12;14.00;;;10.93;;
5010;SDS011;2524;54.364;10.072;2022-12-20T03:17:09;20.03;;;14.60;;
5010;SDS011;2524;54.364;10.072;2022-12-20T03:19:40;24.00;;;14.80;;
5010;SDS011;2524;54.364;10.072;2022-12-20T03:22:16;23.03;;;16.93;;
5010;SDS011;2524;54.364;10.072;2022-12-20T03:24:48;16.63;;;12.93;;
5010;SDS011;2524;54.364;10.072;2022-12-20T03:27:19;19.67;;;14.60;;
5010;SDS011;2524;54.364;10.072;2022-12-20T03:29:53;19.37;;;14.67;;
5010;SDS011;2524;54.364;10.072;2022-12-20T03:32:22;14.20;;;12.20;;
5010;SDS011;2524;54.364;10.072;2022-12-20T03:34:51;14.47;;;11.70;;
5010;SDS011;2524;54.364;10.072;2022-12-20T03:37:19;19.27;;;13.80;;
5010;SDS011;2524;54.364;10.072;2022-12-20T03:39:47;14.33;;;12.40;;
5010;SDS011;2524;54.364;10.072;2022-12-20T03:42:19;19.03;;;14.87;;
5010;SDS011;2524;54.364;10.072;2022-12-20T03:44:44;12.90;;;11.50;;
5010;SDS011;2524;54.364;10.072;2022-12-20T03:47:10;12.53;;;11.20;;
5010;SDS011;2524;54.364;10.072;2022-12-20T03:49:40;11.73;;;10.50;;
5010;SDS011;2524;54.364;10.072;2022-12-20T03:52:18;19.30;;;13.03;;
5010;SDS011;2524;54.364;10.072;2022-12-20T03:54:44;11.80;;;10.27;;
5010;SDS011;2524;54.364;10.072;2022-12-20T03:57:09;13.33;;;11.93;;
5010;SDS011;2524;54.364;10.072;2022-12-20T03:59:43;15.10;;;12.73;;
5010;SDS011;2524;54.364;10.072;2022-12-20T04:02:11;16.80;;;14.10;;
5010;SDS011;2524;54.364;10.072;2022-12-20T04:04:39;12.20;;;10.40;;
5010;SDS011;2524;54.364;10.072;2022-12-20T04:07:10;17.17;;;12.20;;
5010;SDS011;2524;54.364;10.072;2022-12-20T04:09:35;13.33;;;10.67;;
5010;SDS011;2524;54.364;10.072;2022-12-20T04:12:03;15.50;;;12.90;;
5010;SDS011;2524;54.364;10.072;2022-12-20T04:14:29;15.43;;;12.43;;
5010;SDS011;2524;54.364;10.072;2022-12-20T04:16:55;15.33;;;11.20;;
5010;SDS011;2524;54.364;10.072;2022-12-20T04:19:21;11.30;;;10.20;;
5010;SDS011;2524;54.364;10.072;2022-12-20T04:21:47;13.80;;;11.17;;
5010;SDS011;2524;54.364;10.072;2022-12-20T04:24:15;12.73;;;11.33;;
5010;SDS011;2524;54.364;10.072;2022-12-20T04:26:41;11.73;;;9.67;;
5010;SDS011;2524;54.364;10.072;2022-12-20T04:29:11;9.63;;;8.70;;
5010;SDS011;2524;54.364;10.072;2022-12-20T04:31:37;16.60;;;11.30;;
5010;SDS011;2524;54.364;10.072;2022-12-20T04:34:02;17.60;;;12.70;;
5010;SDS011;2524;54.364;10.072;2022-12-20T04:36:28;18.80;;;12.83;;
5010;SDS011;2524;54.364;10.072;2022-12-20T04:38:54;14.47;;;11.83;;
5010;SDS011;2524;54.364;10.072;2022-12-20T04:41:19;10.43;;;9.43;;
5010;SDS011;2524;54.364;10.072;2022-12-20T04:43:51;15.93;;;12.13;;
5010;SDS011;2524;54.364;10.072;2022-12-20T04:46:19;16.30;;;12.37;;
5010;SDS011;2524;54.364;10.072;2022-12-20T04:48:46;18.53;;;12.60;;
5010;SDS011;2524;54.364;10.072;2022-12-20T04:51:11;15.67;;;11.40;;
5010;SDS011;2524;54.364;10.072;2022-12-20T04:53:37;14.10;;;12.37;;
5010;SDS011;2524;54.364;10.072;2022-12-20T04:56:19;11.80;;;10.57;;
5010;SDS011;2524;54.364;10.072;2022-12-20T04:58:47;11.23;;;9.80;;
5010;SDS011;2524;54.364;10.072;2022-12-20T05:01:14;10.50;;;8.83;;
5010;SDS011;2524;54.364;10.072;2022-12-20T05:03:41;14.40;;;11.63;;
5010;SDS011;2524;54.364;10.072;2022-12-20T05:06:07;13.40;;;10.80;;
5010;SDS011;2524;54.364;10.072;2022-12-20T05:08:34;11.73;;;10.17;;
5010;SDS011;2524;54.364;10.072;2022-12-20T05:11:01;20.60;;;13.23;;
5010;SDS011;2524;54.364;10.072;2022-12-20T05:13:26;19.80;;;13.80;;
5010;SDS011;2524;54.364;10.072;2022-12-20T05:15:52;14.33;;;10.70;;
5010;SDS011;2524;54.364;10.072;2022-12-20T05:18:19;16.03;;;12.90;;
5010;SDS011;2524;54.364;10.072;2022-12-20T05:20:46;12.20;;;10.73;;
5010;SDS011;2524;54.364;10.072;2022-12-20T05:23:11;20.77;;;13.90;;
5010;SDS011;2524;54.364;10.072;2022-12-20T05:25:56;12.23;;;10.17;;
5010;SDS011;2524;54.364;10.072;2022-12-20T05:28:41;20.70;;;13.70;;
5010;SDS011;2524;54.364;10.072;2022-12-20T05:31:07;20.37;;;12.60;;
5010;SDS011;2524;54.364;10.072;2022-12-20T05:33:32;15.67;;;12.03;;
5010;SDS011;2524;54.364;10.072;2022-12-20T05:35:58;13.57;;;11.90;;
5010;SDS011;2524;54.364;10.072;2022-12-20T05:38:23;14.30;;;12.43;;
5010;SDS011;2524;54.364;10.072;2022-12-20T05:40:49;13.23;;;10.60;;
5010;SDS011;2524;54.364;10.072;2022-12-20T05:43:18;9.87;;;8.87;;
5010;SDS011;2524;54.364;10.072;2022-12-20T05:45:48;21.23;;;12.27;;
5010;SDS011;2524;54.364;10.072;2022-12-20T05:48:15;18.47;;;11.57;;
5010;SDS011;2524;54.364;10.072;2022-12-20T05:50:42;12.93;;;11.10;;
5010;SDS011;2524;54.364;10.072;2022-12-20T05:53:12;14.13;;;10.60;;
5010;SDS011;2524;54.364;10.072;2022-12-20T05:55:50;17.27;;;13.20;;
5010;SDS011;2524;54.364;10.072;2022-12-20T05:58:17;16.80;;;11.67;;
5010;SDS011;2524;54.364;10.072;2022-12-20T06:00:43;11.50;;;10.30;;
5010;SDS011;2524;54.364;10.072;2022-12-20T06:03:09;13.40;;;10.63;;
5010;SDS011;2524;54.364;10.072;2022-12-20T06:05:38;16.30;;;12.30;;
5010;SDS011;2524;54.364;10.072;2022-12-20T06:08:05;13.03;;;10.60;;
5010;SDS011;2524;54.364;10.072;2022-12-20T06:10:31;14.93;;;11.33;;
5010;SDS011;2524;54.364;10.072;2022-12-20T06:12:58;11.40;;;9.07;;
5010;SDS011;2524;54.364;10.072;2022-12-20T06:15:25;16.07;;;11.37;;
5010;SDS011;2524;54.364;10.072;2022-12-20T06:17:50;15.30;;;11.43;;
5010;SDS011;2524;54.364;10.072;2022-12-20T06:20:16;11.40;;;10.20;;
5010;SDS011;2524;54.364;10.072;2022-12-20T06:22:42;9.03;;;8.23;;
5010;SDS011;2524;54.364;10.072;2022-12-20T06:25:07;9.97;;;8.53;;
5010;SDS011;2524;54.364;10.072;2022-12-20T06:27:34;12.30;;;9.57;;
5010;SDS011;2524;54.364;10.072;2022-12-20T06:30:01;8.67;;;7.90;;
5010;SDS011;2524;54.364;10.072;2022-12-20T06:32:30;15.80;;;12.20;;
5010;SDS011;2524;54.364;10.072;2022-12-20T06:34:56;12.23;;;10.87;;
5010;SDS011;2524;54.364;10.072;2022-12-20T06:37:22;14.73;;;10.50;;
5010;SDS011;2524;54.364;10.072;2022-12-20T06:39:47;14.67;;;12.30;;
5010;SDS011;2524;54.364;10.072;2022-12-20T06:42:13;18.27;;;13.90;;
5010;SDS011;2524;54.364;10.072;2022-12-20T06:44:39;14.77;;;10.70;;
5010;SDS011;2524;54.364;10.072;2022-12-20T06:47:04;21.30;;;14.93;;
5010;SDS011;2524;54.364;10.072;2022-12-20T06:49:30;14.37;;;11.53;;
5010;SDS011;2524;54.364;10.072;2022-12-20T06:51:55;13.43;;;11.77;;
5010;SDS011;2524;54.364;10.072;2022-12-20T06:54:21;15.23;;;11.10;;
5010;SDS011;2524;54.364;10.072;2022-12-20T06:56:47;17.77;;;10.20;;
5010;SDS011;2524;54.364;10.072;2022-12-20T06:59:28;19.10;;;13.00;;
5010;SDS011;2524;54.364;10.072;2022-12-20T07:01:54;15.50;;;10.80;;
5010;SDS011;2524;54.364;10.072;2022-12-20T07:04:19;13.10;;;9.33;;
5010;SDS011;2524;54.364;10.072;2022-12-20T07:06:45;10.10;;;9.10;;
5010;SDS011;2524;54.364;10.072;2022-12-20T07:09:11;15.27;;;11.23;;
5010;SDS011;2524;54.364;10.072;2022-12-20T07:11:36;19.20;;;14.47;;
5010;SDS011;2524;54.364;10.072;2022-12-20T07:14:02;13.07;;;10.30;;
5010;SDS011;2524;54.364;10.072;2022-12-20T07:16:28;15.70;;;12.07;;
5010;SDS011;2524;54.364;10.072;2022-12-20T07:18:54;11.73;;;10.37;;
5010;SDS011;2524;54.364;10.072;2022-12-20T07:21:20;9.43;;;8.53;;
5010;SDS011;2524;54.364;10.072;2022-12-20T07:23:46;15.37;;;10.67;;
5010;SDS011;2524;54.364;10.072;2022-12-20T07:26:12;14.17;;;11.07;;
5010;SDS011;2524;54.364;10.072;2022-12-20T07:28:39;13.53;;;11.00;;
5010;SDS011;2524;54.364;10.072;2022-12-20T07:31:05;13.60;;;11.60;;
5010;SDS011;2524;54.364;10.072;2022-12-20T07:33:31;11.87;;;10.43;;
5010;SDS011;2524;54.364;10.072;2022-12-20T07:36:04;11.67;;;9.00;;
5010;SDS011;2524;54.364;10.072;2022-12-20T07:38:33;13.40;;;10.47;;
5010;SDS011;2524;54.364;10.072;2022-12-20T07:41:00;14.23;;;11.53;;
5010;SDS011;2524;54.364;10.072;2022-12-20T07:43:31;14.57;;;11.00;;
5010;SDS011;2524;54.364;10.072;2022-12-20T07:45:57;12.40;;;10.47;;
5010;SDS011;2524;54.364;10.072;2022-12-20T07:48:23;18.10;;;13.37;;
5010;SDS011;2524;54.364;10.072;2022-12-20T07:50:52;16.60;;;11.97;;
5010;SDS011;2524;54.364;10.072;2022-12-20T07:53:22;17.77;;;12.20;;
5010;SDS011;2524;54.364;10.072;2022-12-20T07:55:51;11.93;;;10.80;;
5010;SDS011;2524;54.364;10.072;2022-12-20T07:58:17;13.60;;;9.80;;
5010;SDS011;2524;54.364;10.072;2022-12-20T08:00:44;16.13;;;11.97;;
5010;SDS011;2524;54.364;10.072;2022-12-20T08:03:11;17.13;;;12.63;;
5010;SDS011;2524;54.364;10.072;2022-12-20T08:05:46;20.50;;;13.70;;
5010;SDS011;2524;54.364;10.072;2022-12-20T08:08:15;14.70;;;12.00;;
5010;SDS011;2524;54.364;10.072;2022-12-20T08:10:42;13.50;;;11.57;;
5010;SDS011;2524;54.364;10.072;2022-12-20T08:13:08;13.77;;;10.77;;
5010;SDS011;2524;54.364;10.072;2022-12-20T08:15:34;14.20;;;11.40;;
5010;SDS011;2524;54.364;10.072;2022-12-20T08:18:01;12.57;;;10.53;;
5010;SDS011;2524;54.364;10.072;2022-12-20T08:20:27;14.00;;;11.17;;
5010;SDS011;2524;54.364;10.072;2022-12-20T08:22:53;20.03;;;14.30;;
5010;SDS011;2524;54.364;10.072;2022-12-20T08:25:20;18.90;;;11.90;;
5010;SDS011;2524;54.364;10.072;2022-12-20T08:27:45;21.83;;;13.23;;
5010;SDS011;2524;54.364;10.072;2022-12-20T08:30:11;18.20;;;13.97;;
5010;SDS011;2524;54.364;10.072;2022-12-20T08:32:37;13.97;;;12.30;;
5010;SDS011;2524;54.364;10.072;2022-12-20T08:35:03;14.77;;;12.43;;
5010;SDS011;2524;54.364;10.072;2022-12-20T08:37:30;10.50;;;9.50;;
5010;SDS011;2524;54.364;10.072;2022-12-20T08:39:55;15.87;;;10.17;;
5010;SDS011;2524;54.364;10.072;2022-12-20T08:42:21;10.47;;;9.40;;
5010;SDS011;2524;54.364;10.072;2022-12-20T08:44:46;17.57;;;13.33;;
5010;SDS011;2524;54.364;10.072;2022-12-20T08:47:12;21.27;;;14.73;;
5010;SDS011;2524;54.364;10.072;2022-12-20T08:49:38;18.07;;;13.63;;
5010;SDS011;2524;54.364;10.072;2022-12-20T08:52:03;23.80;;;15.77;;
5010;SDS011;2524;54.364;10.072;2022-12-20T08:54:29;17.10;;;14.73;;
5010;SDS011;2524;54.364;10.072;2022-12-20T08:56:54;20.30;;;14.00;;
5010;SDS011;2524;54.364;10.072;2022-12-20T08:59:20;13.37;;;11.97;;
5010;SDS011;2524;54.364;10.072;2022-12-20T09:01:46;18.27;;;14.40;;
5010;SDS011;2524;54.364;10.072;2022-12-20T09:04:12;15.60;;;13.30;;
5010;SDS011;2524;54.364;10.072;2022-12-20T09:06:39;23.17;;;16.60;;
5010;SDS011;2524;54.364;10.072;2022-12-20T09:09:05;21.30;;;13.90;;
5010;SDS011;2524;54.364;10.072;2022-12-20T09:11:31;23.30;;;14.73;;
5010;SDS011;2524;54.364;10.072;2022-12-20T09:13:57;17.70;;;14.97;;
5010;SDS011;2524;54.364;10.072;2022-12-20T09:16:26;15.33;;;13.70;;
5010;SDS011;2524;54.364;10.072;2022-12-20T09:18:54;12.60;;;11.30;;
5010;SDS011;2524;54.364;10.072;2022-12-20T09:21:22;13.07;;;10.70;;
5010;SDS011;2524;54.364;10.072;2022-12-20T09:23:54;13.67;;;12.03;;
5010;SDS011;2524;54.364;10.072;2022-12-20T09:26:21;11.90;;;10.10;;
5010;SDS011;2524;54.364;10.072;2022-12-20T09:28:48;10.60;;;9.63;;
5010;SDS011;2524;54.364;10.072;2022-12-20T09:31:16;9.57;;;8.70;;
5010;SDS011;2524;54.364;10.072;2022-12-20T09:33:43;11.43;;;10.23;;
5010;SDS011;2524;54.364;10.072;2022-12-20T09:36:13;14.63;;;10.97;;
5010;SDS011;2524;54.364;10.072;2022-12-20T09:38:44;11.70;;;10.00;;
5010;SDS011;2524;54.364;10.072;2022-12-20T09:44:03;14.03;;;11.03;;
5010;SDS011;2524;54.364;10.072;2022-12-20T09:46:40;10.63;;;9.53;;
5010;SDS011;2524;54.364;10.072;2022-12-20T09:49:07;9.07;;;8.17;;
5010;SDS011;2524;54.364;10.072;2022-12-20T09:51:42;11.43;;;10.10;;
5010;SDS011;2524;54.364;10.072;2022-12-20T09:57:04;12.73;;;9.87;;
5010;SDS011;2524;54.364;10.072;2022-12-20T09:59:50;11.47;;;10.03;;
5010;SDS011;2524;54.364;10.072;2022-12-20T10:02:20;12.33;;;9.57;;
5010;SDS011;2524;54.364;10.072;2022-12-20T10:04:48;9.43;;;8.50;;
5010;SDS011;2524;54.364;10.072;2022-12-20T10:12:54;8.80;;;7.90;;
5010;SDS011;2524;54.364;10.072;2022-12-20T10:15:55;9.37;;;8.20;;
5010;SDS011;2524;54.364;10.072;2022-12-20T10:18:33;8.97;;;7.67;;
5010;SDS011;2524;54.364;10.072;2022-12-20T10:24:15;7.30;;;6.70;;
5010;SDS011;2524;54.364;10.072;2022-12-20T10:26:43;12.60;;;10.00;;
5010;SDS011;2524;54.364;10.072;2022-12-20T10:29:10;11.33;;;9.10;;
5010;SDS011;2524;54.364;10.072;2022-12-20T10:31:35;9.10;;;8.20;;
5010;SDS011;2524;54.364;10.072;2022-12-20T10:34:02;8.90;;;8.00;;
5010;SDS011;2524;54.364;10.072;2022-12-20T10:36:31;9.53;;;8.27;;
5010;SDS011;2524;54.364;10.072;2022-12-20T10:39:06;12.90;;;10.40;;
5010;SDS011;2524;54.364;10.072;2022-12-20T10:44:05;8.67;;;7.93;;
5010;SDS011;2524;54.364;10.072;2022-12-20T10:46:47;9.23;;;8.17;;
5010;SDS011;2524;54.364;10.072;2022-12-20T10:49:35;15.03;;;11.00;;
5010;SDS011;2524;54.364;10.072;2022-12-20T10:52:07;10.83;;;8.47;;
5010;SDS011;2524;54.364;10.072;2022-12-20T10:57:12;8.53;;;7.83;;
5010;SDS011;2524;54.364;10.072;2022-12-20T10:59:41;10.17;;;9.23;;
5010;SDS011;2524;54.364;10.072;2022-12-20T11:07:37;9.30;;;8.40;;
5010;SDS011;2524;54.364;10.072;2022-12-20T11:10:19;8.87;;;8.07;;
5010;SDS011;2524;54.364;10.072;2022-12-20T11:12:54;8.50;;;7.77;;
5010;SDS011;2524;54.364;10.072;2022-12-20T11:15:31;10.30;;;9.23;;
5010;SDS011;2524;54.364;10.072;2022-12-20T11:18:03;9.00;;;8.20;;
5010;SDS011;2524;54.364;10.072;2022-12-20T11:23:25;9.63;;;8.67;;
5010;SDS011;2524;54.364;10.072;2022-12-20T11:39:58;10.83;;;9.73;;
5010;SDS011;2524;54.364;10.072;2022-12-20T11:42:37;10.77;;;9.73;;
5010;SDS011;2524;54.364;10.072;2022-12-20T11:46:04;13.27;;;11.80;;
5010;SDS011;2524;54.364;10.072;2022-12-20T11:48:25;13.80;;;11.50;;
5010;SDS011;2524;54.364;10.072;2022-12-20T11:51:08;10.97;;;9.87;;
5010;SDS011;2524;54.364;10.072;2022-12-20T11:53:42;8.67;;;7.87;;
5010;SDS011;2524;54.364;10.072;2022-12-20T11:56:29;11.93;;;10.73;;
5010;SDS011;2524;54.364;10.072;2022-12-20T11:59:21;13.73;;;9.47;;
5010;SDS011;2524;54.364;10.072;2022-12-20T12:02:21;12.43;;;8.90;;
5010;SDS011;2524;54.364;10.072;2022-12-20T12:05:05;11.03;;;9.87;;
5010;SDS011;2524;54.364;10.072;2022-12-20T12:07:39;12.73;;;8.80;;
5010;SDS011;2524;54.364;10.072;2022-12-20T12:10:18;13.60;;;11.23;;
5010;SDS011;2524;54.364;10.072;2022-12-20T12:18:19;13.10;;;10.80;;
5010;SDS011;2524;54.364;10.072;2022-12-20T12:20:50;11.20;;;10.10;;
5010;SDS011;2524;54.364;10.072;2022-12-20T12:26:02;8.67;;;7.80;;
5010;SDS011;2524;54.364;10.072;2022-12-20T12:28:34;8.30;;;7.50;;
5010;SDS011;2524;54.364;10.072;2022-12-20T12:31:03;13.03;;;10.60;;
5010;SDS011;2524;54.364;10.072;2022-12-20T12:33:40;7.60;;;7.00;;
5010;SDS011;2524;54.364;10.072;2022-12-20T12:36:27;10.30;;;8.10;;
5010;SDS011;2524;54.364;10.072;2022-12-20T12:39:16;8.60;;;7.80;;
5010;SDS011;2524;54.364;10.072;2022-12-20T12:50:55;8.40;;;7.63;;
5010;SDS011;2524;54.364;10.072;2022-12-20T12:53:31;9.77;;;8.77;;
5010;SDS011;2524;54.364;10.072;2022-12-20T12:56:28;9.33;;;8.40;;
5010;SDS011;2524;54.364;10.072;2022-12-20T13:09:19;9.10;;;8.20;;
5010;SDS011;2524;54.364;10.072;2022-12-20T13:20:26;9.63;;;7.90;;
5010;SDS011;2524;54.364;10.072;2022-12-20T13:25:33;8.07;;;7.27;;
5010;SDS011;2524;54.364;10.072;2022-12-20T13:30:42;10.40;;;9.30;;
5010;SDS011;2524;54.364;10.072;2022-12-20T13:33:17;6.83;;;6.23;;
5010;SDS011;2524;54.364;10.072;2022-12-20T13:35:58;10.27;;;8.77;;
5010;SDS011;2524;54.364;10.072;2022-12-20T13:38:49;9.80;;;7.37;;
5010;SDS011;2524;54.364;10.072;2022-12-20T13:41:36;11.73;;;8.07;;
5010;SDS011;2524;54.364;10.072;2022-12-20T13:49:23;10.87;;;8.27;;
5010;SDS011;2524;54.364;10.072;2022-12-20T13:52:37;9.20;;;8.30;;
5010;SDS011;2524;54.364;10.072;2022-12-20T13:54:45;7.90;;;7.17;;
5010;SDS011;2524;54.364;10.072;2022-12-20T13:57:18;6.87;;;6.27;;
5010;SDS011;2524;54.364;10.072;2022-12-20T14:00:00;12.40;;;9.00;;
5010;SDS011;2524;54.364;10.072;2022-12-20T14:02:29;11.83;;;8.90;;
5010;SDS011;2524;54.364;10.072;2022-12-20T14:05:05;11.47;;;9.20;;
5010;SDS011;2524;54.364;10.072;2022-12-20T14:07:59;7.23;;;6.67;;
5010;SDS011;2524;54.364;10.072;2022-12-20T14:10:27;10.93;;;9.13;;
5010;SDS011;2524;54.364;10.072;2022-12-20T14:12:55;13.77;;;8.10;;
5010;SDS011;2524;54.364;10.072;2022-12-20T14:15:22;7.43;;;6.80;;
5010;SDS011;2524;54.364;10.072;2022-12-20T14:17:54;8.40;;;7.60;;
5010;SDS011;2524;54.364;10.072;2022-12-20T14:20:22;7.80;;;7.10;;
5010;SDS011;2524;54.364;10.072;2022-12-20T14:23:04;8.00;;;6.83;;
5010;SDS011;2524;54.364;10.072;2022-12-20T14:25:42;7.97;;;7.27;;
5010;SDS011;2524;54.364;10.072;2022-12-20T14:31:01;10.63;;;8.13;;
5010;SDS011;2524;54.364;10.072;2022-12-20T14:33:34;9.10;;;8.30;;
5010;SDS011;2524;54.364;10.072;2022-12-20T14:36:08;10.93;;;8.23;;
5010;SDS011;2524;54.364;10.072;2022-12-20T14:38:43;7.40;;;6.73;;
5010;SDS011;2524;54.364;10.072;2022-12-20T14:41:34;8.47;;;7.57;;
5010;SDS011;2524;54.364;10.072;2022-12-20T14:46:32;9.83;;;8.17;;
5010;SDS011;2524;54.364;10.072;2022-12-20T14:51:52;7.63;;;6.93;;
5010;SDS011;2524;54.364;10.072;2022-12-20T14:54:28;7.50;;;6.80;;
5010;SDS011;2524;54.364;10.072;2022-12-20T14:56:54;9.77;;;8.80;;
5010;SDS011;2524;54.364;10.072;2022-12-20T14:59:27;8.37;;;7.60;;
5010;SDS011;2524;54.364;10.072;2022-12-20T15:01:55;9.00;;;8.10;;
5010;SDS011;2524;54.364;10.072;2022-12-20T15:06:57;10.40;;;9.23;;
5010;SDS011;2524;54.364;10.072;2022-12-20T15:09:24;9.50;;;8.60;;
5010;SDS011;2524;54.364;10.072;2022-12-20T15:11:50;8.50;;;7.80;;
5010;SDS011;2524;54.364;10.072;2022-12-20T15:16:45;13.27;;;10.20;;
5010;SDS011;2524;54.364;10.072;2022-12-20T15:19:16;12.60;;;10.30;;
5010;SDS011;2524;54.364;10.072;2022-12-20T15:21:44;10.90;;;9.73;;
5010;SDS011;2524;54.364;10.072;2022-12-20T15:24:23;13.40;;;9.63;;
5010;SDS011;2524;54.364;10.072;2022-12-20T15:26:54;13.37;;;11.93;;
5010;SDS011;2524;54.364;10.072;2022-12-20T15:29:27;10.07;;;9.00;;
5010;SDS011;2524;54.364;10.072;2022-12-20T15:32:03;11.13;;;9.97;;
5010;SDS011;2524;54.364;10.072;2022-12-20T15:34:43;13.13;;;10.90;;
5010;SDS011;2524;54.364;10.072;2022-12-20T15:37:24;17.10;;;10.50;;
5010;SDS011;2524;54.364;10.072;2022-12-20T15:39:53;11.47;;;10.23;;
5010;SDS011;2524;54.364;10.072;2022-12-20T15:42:19;11.17;;;10.07;;
5010;SDS011;2524;54.364;10.072;2022-12-20T15:44:46;11.30;;;10.20;;
5010;SDS011;2524;54.364;10.072;2022-12-20T15:47:12;11.70;;;10.50;;
5010;SDS011;2524;54.364;10.072;2022-12-20T15:49:39;12.17;;;10.87;;
5010;SDS011;2524;54.364;10.072;2022-12-20T15:52:05;13.20;;;11.80;;
5010;SDS011;2524;54.364;10.072;2022-12-20T15:54:32;14.03;;;12.63;;
5010;SDS011;2524;54.364;10.072;2022-12-20T15:57:00;12.23;;;11.03;;
5010;SDS011;2524;54.364;10.072;2022-12-20T15:59:28;14.77;;;13.27;;
5010;SDS011;2524;54.364;10.072;2022-12-20T16:01:54;13.40;;;12.10;;
5010;SDS011;2524;54.364;10.072;2022-12-20T16:04:20;15.10;;;13.13;;
5010;SDS011;2524;54.364;10.072;2022-12-20T16:06:47;15.40;;;13.67;;
5010;SDS011;2524;54.364;10.072;2022-12-20T16:09:14;14.07;;;12.60;;
5010;SDS011;2524;54.364;10.072;2022-12-20T16:11:41;13.17;;;11.77;;
5010;SDS011;2524;54.364;10.072;2022-12-20T16:14:18;13.77;;;12.47;;
5010;SDS011;2524;54.364;10.072;2022-12-20T16:16:47;15.03;;;13.60;;
5010;SDS011;2524;54.364;10.072;2022-12-20T16:19:14;11.40;;;10.40;;
5010;SDS011;2524;54.364;10.072;2022-12-20T16:21:47;12.53;;;11.23;;
5010;SDS011;2524;54.364;10.072;2022-12-20T16:24:16;12.30;;;11.10;;
5010;SDS011;2524;54.364;10.072;2022-12-20T16:26:44;15.20;;;12.43;;
5010;SDS011;2524;54.364;10.072;2022-12-20T16:29:10;13.90;;;12.60;;
5010;SDS011;2524;54.364;10.072;2022-12-20T16:31:36;25.07;;;17.50;;
5010;SDS011;2524;54.364;10.072;2022-12-20T16:34:04;14.07;;;12.77;;
5010;SDS011;2524;54.364;10.072;2022-12-20T16:36:33;15.53;;;13.93;;
5010;SDS011;2524;54.364;10.072;2022-12-20T16:38:59;16.17;;;14.33;;
5010;SDS011;2524;54.364;10.072;2022-12-20T16:41:27;15.80;;;12.90;;
5010;SDS011;2524;54.364;10.072;2022-12-20T16:43:54;11.83;;;10.70;;
5010;SDS011;2524;54.364;10.072;2022-12-20T16:46:23;16.20;;;14.50;;
5010;SDS011;2524;54.364;10.072;2022-12-20T16:48:51;12.00;;;10.90;;
5010;SDS011;2524;54.364;10.072;2022-12-20T16:51:21;16.23;;;14.53;;
5010;SDS011;2524;54.364;10.072;2022-12-20T16:53:54;19.13;;;17.17;;
5010;SDS011;2524;54.364;10.072;2022-12-20T16:56:21;16.07;;;14.07;;
5010;SDS011;2524;54.364;10.072;2022-12-20T16:58:47;19.43;;;16.23;;
5010;SDS011;2524;54.364;10.072;2022-12-20T17:01:15;16.80;;;15.10;;
5010;SDS011;2524;54.364;10.072;2022-12-20T17:03:45;13.47;;;12.17;;
5010;SDS011;2524;54.364;10.072;2022-12-20T17:06:11;15.63;;;14.03;;
5010;SDS011;2524;54.364;10.072;2022-12-20T17:08:38;16.10;;;14.40;;
5010;SDS011;2524;54.364;10.072;2022-12-20T17:11:11;20.53;;;17.37;;
5010;SDS011;2524;54.364;10.072;2022-12-20T17:13:37;16.27;;;14.63;;
5010;SDS011;2524;54.364;10.072;2022-12-20T17:16:04;16.43;;;14.73;;
5010;SDS011;2524;54.364;10.072;2022-12-20T17:18:30;14.53;;;13.23;;
5010;SDS011;2524;54.364;10.072;2022-12-20T17:20:55;18.43;;;16.40;;
5010;SDS011;2524;54.364;10.072;2022-12-20T17:23:21;17.57;;;15.73;;
5010;SDS011;2524;54.364;10.072;2022-12-20T17:25:46;16.00;;;14.40;;
5010;SDS011;2524;54.364;10.072;2022-12-20T17:28:12;19.17;;;17.17;;
5010;SDS011;2524;54.364;10.072;2022-12-20T17:30:37;18.00;;;16.20;;
5010;SDS011;2524;54.364;10.072;2022-12-20T17:33:03;16.30;;;14.60;;
5010;SDS011;2524;54.364;10.072;2022-12-20T17:35:29;15.63;;;14.07;;
5010;SDS011;2524;54.364;10.072;2022-12-20T17:37:56;24.30;;;19.13;;
5010;SDS011;2524;54.364;10.072;2022-12-20T17:40:26;19.93;;;17.80;;
5010;SDS011;2524;54.364;10.072;2022-12-20T17:42:52;20.33;;;18.10;;
5010;SDS011;2524;54.364;10.072;2022-12-20T17:45:19;17.53;;;15.73;;
5010;SDS011;2524;54.364;10.072;2022-12-20T17:47:46;26.83;;;19.93;;
5010;SDS011;2524;54.364;10.072;2022-12-20T17:50:13;17.83;;;16.03;;
5010;SDS011;2524;54.364;10.072;2022-12-20T17:52:43;19.60;;;17.10;;
5010;SDS011;2524;54.364;10.072;2022-12-20T17:55:13;23.73;;;21.07;;
5010;SDS011;2524;54.364;10.072;2022-12-20T17:57:42;19.50;;;17.50;;
5010;SDS011;2524;54.364;10.072;2022-12-20T18:00:11;18.43;;;16.57;;
5010;SDS011;2524;54.364;10.072;2022-12-20T18:02:58;26.53;;;22.53;;
5010;SDS011;2524;54.364;10.072;2022-12-20T18:05:24;20.70;;;18.60;;
5010;SDS011;2524;54.364;10.072;2022-12-20T18:07:53;35.80;;;28.43;;
5010;SDS011;2524;54.364;10.072;2022-12-20T18:10:20;23.90;;;20.23;;
5010;SDS011;2524;54.364;10.072;2022-12-20T18:12:47;20.63;;;17.87;;
5010;SDS011;2524;54.364;10.072;2022-12-20T18:15:14;27.83;;;21.30;;
5010;SDS011;2524;54.364;10.072;2022-12-20T18:17:40;32.10;;;25.10;;
5010;SDS011;2524;54.364;10.072;2022-12-20T18:20:06;27.77;;;23.53;;
5010;SDS011;2524;54.364;10.072;2022-12-20T18:22:34;27.20;;;22.70;;
5010;SDS011;2524;54.364;10.072;2022-12-20T18:25:00;20.57;;;18.37;;
5010;SDS011;2524;54.364;10.072;2022-12-20T18:27:33;29.10;;;23.43;;
5010;SDS011;2524;54.364;10.072;2022-12-20T18:30:01;22.73;;;19.03;;
5010;SDS011;2524;54.364;10.072;2022-12-20T18:32:27;30.33;;;24.10;;
5010;SDS011;2524;54.364;10.072;2022-12-20T18:34:53;24.70;;;21.93;;
5010;SDS011;2524;54.364;10.072;2022-12-20T18:37:18;28.03;;;22.00;;
5010;SDS011;2524;54.364;10.072;2022-12-20T18:39:44;25.90;;;21.50;;
5010;SDS011;2524;54.364;10.072;2022-12-20T18:42:09;20.07;;;17.90;;
5010;SDS011;2524;54.364;10.072;2022-12-20T18:44:35;18.67;;;16.30;;
5010;SDS011;2524;54.364;10.072;2022-12-20T18:47:01;16.70;;;15.00;;
5010;SDS011;2524;54.364;10.072;2022-12-20T18:49:27;16.37;;;14.67;;
5010;SDS011;2524;54.364;10.072;2022-12-20T18:51:53;20.77;;;18.57;;
5010;SDS011;2524;54.364;10.072;2022-12-20T18:54:18;21.03;;;18.83;;
5010;SDS011;2524;54.364;10.072;2022-12-20T18:56:46;22.70;;;20.17;;